• Join FlightAware (Why Join?)
  • Login
  • US Flag 
06:18AM EDT


 

Airport Tracker/Info


-or-


 

Live Flight TrackerFlight Track Log ✈ N137TK ✈ 26-Aug-2013 ✈ KAPF - KARW

Flight Track Log - Related Links

Times and Time Zones

All times are in EDT time to prevent confusion due to time zone crossing. See the N137TK flight status page for this flight to view local times or setup timezone preferences in your user account.

Time Position Orientation Groundspeed Altitude Reporting Facility
EDT Latitude Longitude Course Direction KTS MPH feet Rate Location/Type
07:43AM 26.2822 -81.8217 354° North 186 214 5,300  Level Miami Center
07:44AM 26.3303 -81.8214 360° North 176 203 7,100 1,800 Climbing Miami Center
07:45AM 26.3783 -81.8189 North 176 203 9,000 1,740 Climbing Miami Center
07:46AM 26.4286 -81.8164 North 176 203 10,600 1,560 Climbing Miami Center
07:47AM 26.5334 -81.8125 354° North  Level FlightAware Approximate
07:47AM 26.4850 -81.8139 North 182 209 12,200  Level Miami Center
07:48AM 26.5974 -81.8201 354° North  Level FlightAware Approximate
07:48AM 26.5372 -81.8114 North 182 209 13,500  Level Miami Center
07:49AM 26.5894 -81.8092 North 182 209 14,800 1,200 Climbing Miami Center
07:50AM 26.6439 -81.8044 North 187 215 16,000 1,200 Climbing Miami Center
07:51AM 26.6981 -81.8067 358° North 187 215 17,300 1,140 Climbing Miami Center
07:52AM 26.7522 -81.8136 353° North 192 221 18,300 1,080 Climbing Miami Center
07:53AM 26.8019 -81.8206 353° North 192 221 19,500 1,140 Climbing Miami Center
07:54AM 26.8539 -81.8297 351° North 187 215 20,600 1,020 Climbing Miami Center
07:55AM 26.9036 -81.8386 351° North 182 209 21,600 960 Climbing Miami Center
07:56AM 26.9514 -81.8453 353° North 182 209 22,600 900 Climbing Miami Center
07:57AM 27.0014 -81.8544 351° North 182 209 23,500 840 Climbing Miami Center
07:58AM 27.0450 -81.8586 355° North 177 204 24,300 720 Climbing Miami Center
07:59AM 27.0969 -81.8656 353° North 177 204 25,000 300 Climbing Miami Center
08:00AM 27.1508 -81.8772 349° North 188 216 25,000  Level Miami Center
08:01AM 27.2139 -81.8636 11° North 201 231 25,000  Level Miami Center
08:02AM 27.2689 -81.8403 21° North 224 258 25,000  Level Miami Center
08:03AM 27.3325 -81.8150 19° North 238 274 25,000  Level Miami Center
08:04AM 27.4022 -81.7878 19° North 238 274 25,000  Level Miami Center
08:05AM 27.4656 -81.7647 18° North 238 274 25,000  Level Miami Center
08:06AM 27.5311 -81.7394 19° North 238 274 25,000  Level Miami Center
08:07AM 27.5903 -81.7161 19° North 238 274 25,000  Level Miami Center
08:08AM 27.6603 -81.6864 21° North 238 274 25,000  Level Miami Center
08:09AM 27.7236 -81.6631 18° North 238 274 25,000  Level Miami Center
08:10AM 27.7872 -81.6353 21° North 245 282 25,000  Level Miami Center
08:11AM 27.8483 -81.6122 18° North 240 276 25,000  Level Miami Center
08:12AM 27.9161 -81.5867 18° North 240 276 25,000  Level Miami Center
08:13AM 27.9775 -81.5611 20° North 240 276 25,000  Level Miami Center
08:14AM 28.0408 -81.5356 20° North 235 270 25,000  Level Miami Center
08:15AM 28.1042 -81.5122 18° North 235 270 25,000  Level Miami Center
08:16AM 28.1678 -81.4842 21° North 235 270 25,000  Level Miami Center
08:17AM 28.2108 -81.4675 19° North 236 272 25,000  Level Jacksonville Center
08:18AM 28.2753 -81.4431 18° North 241 277 25,000  Level Jacksonville Center
08:19AM 28.3422 -81.4539 352° North 235 270 25,000  Level Jacksonville Center
08:20AM 28.4197 -81.4694 350° North 240 276 25,000  Level Jacksonville Center
08:21AM 28.4864 -81.4825 350° North 240 276 25,000  Level Jacksonville Center
08:22AM 28.5533 -81.4958 350° North 240 276 25,000  Level Jacksonville Center
08:23AM 28.6225 -81.5067 352° North 240 276 25,000  Level Jacksonville Center
08:24AM 28.6892 -81.5153 354° North 240 276 25,000  Level Jacksonville Center
08:25AM 28.7583 -81.5286 350° North 240 276 25,000  Level Jacksonville Center
08:26AM 28.8253 -81.5394 352° North 240 276 25,000  Level Jacksonville Center
08:27AM 28.8942 -81.5503 352° North 240 276 25,000  Level Jacksonville Center
08:28AM 28.9631 -81.5614 352° North 240 276 25,000  Level Jacksonville Center
08:29AM 29.0303 -81.5769 349° North 240 276 25,000  Level Jacksonville Center
08:30AM 29.0992 -81.5856 354° North 240 276 25,000  Level Jacksonville Center
08:31AM 29.1681 -81.5964 352° North 240 276 25,000  Level Jacksonville Center
08:32AM 29.2267 -81.6125 347° North 240 276 25,000  Level Jacksonville Center
08:33AM 29.2958 -81.6233 352° North 240 276 25,000  Level Jacksonville Center
08:34AM 29.3669 -81.6367 351° North 240 276 25,000  Level Jacksonville Center
08:35AM 29.4358 -81.6431 355° North 240 276 25,000  Level Jacksonville Center
08:36AM 29.5067 -81.6397 North 240 276 25,000  Level Jacksonville Center
08:37AM 29.5778 -81.6414 359° North 240 276 25,000  Level Jacksonville Center
08:38AM 29.6444 -81.6308 North 240 276 25,000  Level Jacksonville Center
08:39AM 29.7131 -81.6181 North 245 282 25,000  Level Jacksonville Center
08:40AM 29.7819 -81.6050 North 245 282 25,000  Level Jacksonville Center
08:41AM 29.8486 -81.5947 North 245 282 25,000  Level Jacksonville Center
08:42AM 29.9175 -81.5842 North 245 282 25,000  Level Jacksonville Center
08:43AM 29.9861 -81.5714 North 245 282 25,000  Level Jacksonville Center
08:44AM 30.0633 -81.5583 North 250 288 25,000  Level Jacksonville Center
08:45AM 30.1319 -81.5453 North 250 288 25,000  Level Jacksonville Center
08:46AM 30.1986 -81.5347 North 250 288 25,000  Level Jacksonville Center
08:47AM 30.2697 -81.5217 North 250 288 25,000  Level Jacksonville Center
08:48AM 30.3361 -81.5061 11° North 250 288 25,000  Level Jacksonville Center
08:49AM 30.4008 -81.4836 17° North 250 288 25,000  Level Jacksonville Center
08:50AM 30.4653 -81.4586 18° North 240 276 25,000  Level Jacksonville Center
08:51AM 30.5297 -81.4336 18° North 240 276 25,000  Level Jacksonville Center
08:52AM 30.5939 -81.4058 20° North 240 276 25,000 -120 Level Jacksonville Center
08:53AM 30.6583 -81.3808 18° North 240 276 24,800 -540 Descending Jacksonville Center
08:54AM 30.7269 -81.3508 21° North 246 283 24,000 -420 Descending Jacksonville Center
08:55AM 30.7975 -81.3206 20° North 257 296 24,000  Level Jacksonville Center
08:56AM 30.8619 -81.2928 20° North 257 296 24,000  Level Jacksonville Center
08:57AM 30.9283 -81.2675 18° North 252 290 24,000  Level Jacksonville Center
08:58AM 30.9950 -81.2397 20° North 247 284 24,000 -300 Level Jacksonville Center
08:59AM 31.0592 -81.2094 22° Northeast 247 284 23,400 -840 Descending Jacksonville Center
09:00AM 31.1319 -81.1792 20° North 260 299 22,400 -1,020 Descending Jacksonville Center
09:01AM 31.2067 -81.1511 18° North 273 314 21,400 -1,020 Descending Jacksonville Center
09:02AM 31.2814 -81.1206 19° North 273 314 20,400 -1,140 Descending Jacksonville Center
09:03AM 31.3603 -81.0825 22° Northeast 285 328 19,200 -1,200 Descending Jacksonville Center
09:04AM 31.4267 -81.0544 20° North 285 328 18,100 -1,140 Descending Jacksonville Center
09:05AM 31.5117 -81.0211 18° North 285 328 17,000 -1,200 Descending Jacksonville Center
09:06AM 31.5781 -80.9906 21° North 280 322 15,800 -1,260 Descending Jacksonville Center
09:07AM 31.6592 -80.9594 18° North 280 322 14,500 -1,200 Descending Jacksonville Center
09:08AM 31.7339 -80.9286 19° North 280 322 13,400 -1,140 Descending Jacksonville Center
09:09AM 31.8022 -80.9075 15° North 280 322 12,300 -1,200 Descending Jacksonville Center
09:10AM 31.8875 -80.8886 11° North 280 322 11,000 -780 Descending Jacksonville Center
09:11AM 31.9542 -80.8775 North 254 292 10,800 -840 Descending Jacksonville Center
09:12AM 32.0186 -80.8514 19° North 241 277 9,400 -1,500 Descending Jacksonville Center
09:13AM 32.0889 -80.8181 22° Northeast 258 297 7,900 -1,500 Descending Jacksonville Center
09:14AM 32.1492 -80.7947 18° North 264 304 6,500 -1,440 Descending Jacksonville Center
09:15AM 32.2114 -80.7686 20° North 248 285 5,100 -1,440 Descending Jacksonville Center